Time;durP1;ratioP1;P1;durP2;ratioP2;P2;SDS_P1;SDS_P2;PMS_P1;PMS_P2;Temp;Humidity;BMP_temperature;BMP_pressure;BME280_temperature;BME280_humidity;BME280_pressure;Samples;Min_cycle;Max_cycle;Signal;HPM_P1;HPM_P2
2022/12/03 00:00:27;;;;;;;29.58;14.30;;;;;;;0.64;88.14;102262.31;4954290;29;20155;-83
2022/12/03 00:02:52;;;;;;;30.92;14.73;;;;;;;0.63;87.36;102270.78;4954927;29;20023;-83
2022/12/03 00:05:18;;;;;;;33.03;15.75;;;;;;;0.62;87.83;102276.69;4954560;29;20552;-83
2022/12/03 00:07:43;;;;;;;30.65;14.98;;;;;;;0.66;87.64;102263.28;4953723;29;20122;-83
2022/12/03 00:10:09;;;;;;;31.42;15.07;;;;;;;0.69;87.85;102268.50;4954635;29;20031;-83
2022/12/03 00:12:34;;;;;;;31.45;15.48;;;;;;;0.64;87.80;102264.88;4954828;29;20019;-83
2022/12/03 00:15:00;;;;;;;31.10;15.13;;;;;;;0.66;87.80;102265.81;4953974;28;20523;-83
2022/12/03 00:17:25;;;;;;;30.33;14.57;;;;;;;0.68;87.69;102279.53;4954187;29;20027;-83
2022/12/03 00:19:50;;;;;;;31.63;15.65;;;;;;;0.69;87.41;102268.50;4952728;29;20039;-84
2022/12/03 00:22:16;;;;;;;33.13;15.95;;;;;;;0.66;87.74;102258.16;4953753;28;20042;-83
2022/12/03 00:24:41;;;;;;;30.60;15.18;;;;;;;0.65;87.97;102255.50;4958500;29;20027;-82
2022/12/03 00:27:06;;;;;;;31.60;15.57;;;;;;;0.65;87.98;102253.84;4957548;29;20134;-82
2022/12/03 00:29:32;;;;;;;31.85;15.48;;;;;;;0.68;87.16;102250.56;4958538;29;20468;-84
2022/12/03 00:31:57;;;;;;;32.53;15.82;;;;;;;0.67;87.96;102244.59;4958267;29;20106;-82
2022/12/03 00:34:22;;;;;;;31.55;15.85;;;;;;;0.67;87.78;102239.47;4957174;29;20027;-83
2022/12/03 00:36:48;;;;;;;31.73;15.25;;;;;;;0.68;88.05;102246.31;4958091;29;20444;-83
2022/12/03 00:39:13;;;;;;;30.33;15.10;;;;;;;0.70;88.04;102247.25;4957724;29;20537;-83
2022/12/03 00:41:38;;;;;;;32.00;15.27;;;;;;;0.70;87.88;102247.25;4957374;29;20081;-83
2022/12/03 00:44:04;;;;;;;33.17;16.35;;;;;;;0.74;87.89;102236.41;4957996;29;20110;-83
2022/12/03 00:46:29;;;;;;;34.92;16.80;;;;;;;0.69;87.77;102236.97;4957610;29;20093;-83
2022/12/03 00:48:54;;;;;;;32.00;16.50;;;;;;;0.68;88.02;102230.97;4957323;29;20031;-83
2022/12/03 00:51:20;;;;;;;31.27;15.50;;;;;;;0.67;88.26;102236.91;4957114;29;20392;-83
2022/12/03 00:53:45;;;;;;;31.50;15.57;;;;;;;0.66;87.72;102235.16;4958050;29;20031;-83
2022/12/03 00:56:10;;;;;;;32.88;16.75;;;;;;;0.69;87.81;102242.94;4956960;29;20039;-83
2022/12/03 00:58:35;;;;;;;33.33;16.48;;;;;;;0.70;88.19;102243.84;4957638;29;20114;-83
2022/12/03 01:01:01;;;;;;;32.88;15.93;;;;;;;0.69;88.05;102244.66;4957574;29;20035;-83
2022/12/03 01:03:38;;;;;;;33.88;17.58;;;;;;;0.66;87.96;102242.81;4948530;29;20035;-81
2022/12/03 01:06:03;;;;;;;32.90;16.10;;;;;;;0.71;88.31;102245.59;4956945;29;20073;-80
2022/12/03 01:08:29;;;;;;;36.10;17.27;;;;;;;0.70;87.91;102239.59;4957615;29;20482;-81
2022/12/03 01:10:57;;;;;;;34.33;17.08;;;;;;;0.71;88.05;102238.78;4956722;29;20114;-81
2022/12/03 01:13:31;;;;;;;35.72;16.55;;;;;;;0.70;87.81;102244.72;4957441;29;20035;-80
2022/12/03 01:15:57;;;;;;;33.22;16.25;;;;;;;0.73;87.75;102249.97;4957225;28;20051;-81
2022/12/03 01:18:22;;;;;;;34.53;16.70;;;;;;;0.74;87.84;102235.50;4956059;29;20396;-81
2022/12/03 01:20:47;;;;;;;34.58;17.60;;;;;;;0.76;87.76;102237.34;4957447;29;20031;-81
2022/12/03 01:23:12;;;;;;;32.47;16.58;;;;;;;0.73;87.93;102239.75;4956407;29;20038;-80
2022/12/03 01:25:38;;;;;;;34.40;16.63;;;;;;;0.75;88.07;102235.59;4957352;29;20177;-81
2022/12/03 01:28:03;;;;;;;34.45;17.98;;;;;;;0.75;87.58;102250.03;4957070;29;20102;-81
2022/12/03 01:32:15;;;;;;;37.38;18.73;;;;;;;0.73;87.91;102239.75;4956242;29;20027;-81
2022/12/03 01:33:14;;;;;;;36.03;17.67;;;;;;;0.72;88.00;102239.69;4956528;28;20035;-81
2022/12/03 01:35:39;;;;;;;36.55;18.13;;;;;;;0.70;87.87;102244.72;4956702;29;20086;-80
2022/12/03 01:38:04;;;;;;;35.72;17.45;;;;;;;0.70;88.26;102231.94;4935911;29;20028;-80
2022/12/03 01:40:29;;;;;;;35.55;17.92;;;;;;;0.72;88.13;102235.44;4937998;29;20094;-81
2022/12/03 01:42:55;;;;;;;35.95;18.05;;;;;;;0.71;88.20;102233.69;4937620;29;20043;-81
2022/12/03 01:45:22;;;;;;;36.55;17.77;;;;;;;0.69;87.96;102240.41;4936810;29;20107;-82
2022/12/03 01:47:48;;;;;;;34.47;17.75;;;;;;;0.72;87.91;102234.56;4937563;29;20035;-81
2022/12/03 01:50:18;;;;;;;35.65;18.05;;;;;;;0.71;88.28;102225.16;4937325;29;20036;-81
2022/12/03 01:52:44;;;;;;;37.35;18.58;;;;;;;0.71;88.28;102226.03;4937182;29;20433;-81
2022/12/03 01:55:14;;;;;;;36.10;18.65;;;;;;;0.71;88.35;102235.38;4937042;29;20083;-81
2022/12/03 01:57:43;;;;;;;39.25;18.98;;;;;;;0.70;88.39;102231.06;4937644;29;20441;-81
2022/12/03 02:00:15;;;;;;;35.80;18.67;;;;;;;0.70;88.15;102228.50;4936558;29;20083;-80
2022/12/03 02:02:40;;;;;;;36.05;17.90;;;;;;;0.70;88.51;102231.94;4937182;29;20107;-81
2022/12/03 02:05:16;;;;;;;37.33;18.95;;;;;;;0.69;88.53;102227.63;4937123;29;20110;-82
2022/12/03 02:07:42;;;;;;;38.33;18.50;;;;;;;0.70;88.15;102228.50;4937380;29;20035;-81
2022/12/03 02:10:10;;;;;;;37.13;18.45;;;;;;;0.71;88.52;102227.72;4936938;29;20032;-81
2022/12/03 02:12:40;;;;;;;37.95;18.77;;;;;;;0.70;88.41;102228.50;4936557;29;20036;-81
2022/12/03 02:15:07;;;;;;;36.17;18.42;;;;;;;0.65;88.29;102223.19;4936599;29;20090;-81
2022/12/03 02:17:33;;;;;;;35.60;17.90;;;;;;;0.65;88.79;102220.63;4937077;29;20396;-81
2022/12/03 02:20:00;;;;;;;38.75;19.17;;;;;;;0.64;88.88;102223.97;4936215;29;20024;-81
2022/12/03 02:22:28;;;;;;;;;;;;;;;0.67;88.70;102218.13;4937398;29;20027;-81
2022/12/03 02:25:15;;;;;;;34.92;17.75;;;;;;;0.65;88.73;102217.19;4937148;29;20269;-81
2022/12/03 02:27:41;;;;;;;37.03;18.75;;;;;;;0.64;88.40;102221.44;4936483;29;20376;-81
2022/12/03 02:30:07;;;;;;;37.92;18.33;;;;;;;0.65;88.51;102219.75;4936769;29;20023;-80
2022/12/03 02:32:33;;;;;;;35.75;17.70;;;;;;;0.66;89.19;102212.16;4936891;29;20110;-81
2022/12/03 02:34:58;;;;;;;34.75;18.13;;;;;;;0.67;88.74;102213.03;4935916;29;20167;-81
2022/12/03 02:37:31;;;;;;;34.92;17.48;;;;;;;0.68;88.78;102219.88;4936264;29;20032;-81
2022/12/03 02:40:01;;;;;;;36.78;18.35;;;;;;;0.66;88.90;102209.59;4936661;29;20032;-81
2022/12/03 02:42:33;;;;;;;35.28;18.48;;;;;;;0.63;88.61;102211.13;4947975;29;20035;-81
2022/12/03 02:45:02;;;;;;;35.05;17.83;;;;;;;0.65;89.00;102204.41;4955100;28;20038;-81
2022/12/03 02:47:28;;;;;;;34.75;17.85;;;;;;;0.64;88.84;102203.53;4954277;29;20491;-80
2022/12/03 02:49:54;;;;;;;35.00;17.95;;;;;;;0.64;89.10;102208.66;4955486;29;20038;-81
2022/12/03 02:52:20;;;;;;;34.80;17.63;;;;;;;0.63;89.24;102201.78;4955242;29;20037;-81
2022/12/03 02:54:46;;;;;;;34.75;17.48;;;;;;;0.65;89.18;102201.84;4954647;29;20028;-81
2022/12/03 02:57:12;;;;;;;37.38;18.30;;;;;;;0.63;89.47;102208.56;4955098;29;20042;-80
2022/12/03 02:59:38;;;;;;;36.85;19.17;;;;;;;0.64;88.92;102202.66;4955363;29;20024;-81
2022/12/03 03:02:03;;;;;;;35.25;18.42;;;;;;;0.65;88.99;102200.19;4954677;29;20019;-80
2022/12/03 03:04:29;;;;;;;36.38;17.85;;;;;;;0.68;89.11;102200.31;4954897;29;20035;-81
2022/12/03 03:06:54;;;;;;;34.90;18.15;;;;;;;0.67;89.22;102202.81;4955283;29;20027;-81
2022/12/03 03:09:20;;;;;;;36.28;17.85;;;;;;;0.69;89.21;102208.88;4953800;29;20034;-81
2022/12/03 03:11:45;;;;;;;37.38;18.30;;;;;;;0.67;89.38;102213.91;4955079;29;20023;-81
2022/12/03 03:14:11;;;;;;;36.97;18.77;;;;;;;0.64;89.27;102192.44;4954510;28;20043;-80
2022/12/03 03:16:36;;;;;;;34.42;17.48;;;;;;;0.70;89.59;102193.59;4954365;29;20118;-81
2022/12/03 03:19:02;;;;;;;35.65;18.65;;;;;;;0.68;89.23;102191.78;4955461;29;20428;-81
2022/12/03 03:21:27;;;;;;;35.10;18.10;;;;;;;0.70;89.25;102191.03;4955087;29;20110;-81
2022/12/03 03:24:03;;;;;;;35.63;18.08;;;;;;;0.69;89.41;102191.84;4954398;29;20027;-81
2022/12/03 03:26:35;;;;;;;37.20;18.67;;;;;;;0.63;89.71;102189.00;4955194;29;20035;-81
2022/12/03 03:29:01;;;;;;;36.92;18.33;;;;;;;0.65;89.47;102182.31;4954897;29;20651;-81
2022/12/03 03:31:27;;;;;;;36.75;18.33;;;;;;;0.67;89.81;102179.81;4954236;29;20023;-81
2022/12/03 03:33:52;;;;;;;37.55;19.05;;;;;;;0.66;89.48;102185.72;4954742;29;20448;-81
2022/12/03 03:36:18;;;;;;;37.03;18.42;;;;;;;0.64;89.72;102177.09;4955224;29;20098;-81
2022/12/03 03:38:45;;;;;;;35.72;19.98;;;;;;;0.65;89.55;102179.75;4954158;29;20078;-80
2022/12/03 03:41:13;;;;;;;36.08;18.77;;;;;;;0.67;89.61;102182.34;4954115;29;20031;-80
2022/12/03 03:43:40;;;;;;;35.15;18.25;;;;;;;0.69;89.82;102180.75;4954522;29;20118;-81
2022/12/03 03:46:05;;;;;;;;;;;;;;;0.70;90.05;102175.72;4954302;29;20392;-81
2022/12/03 03:48:33;;;;;;;36.53;19.07;;;;;;;0.67;89.73;102174.69;4954744;29;19915;-81
2022/12/03 03:50:59;;;;;;;36.75;19.23;;;;;;;0.65;89.90;102179.75;4954003;29;20472;-81
2022/12/03 03:53:25;;;;;;;37.67;19.23;;;;;;;0.67;90.01;102161.91;4954671;29;20026;-81
2022/12/03 03:55:50;;;;;;;34.80;17.77;;;;;;;0.68;90.16;102174.75;4954486;29;20020;-81
2022/12/03 03:58:16;;;;;;;37.60;19.33;;;;;;;0.69;90.27;102176.50;4953856;29;20038;-81
2022/12/03 04:00:44;;;;;;;37.53;19.88;;;;;;;0.69;90.07;102175.66;4954855;29;20365;-81
2022/12/03 04:03:10;;;;;;;38.97;19.98;;;;;;;0.70;89.75;102174.84;4954361;29;20102;-81
2022/12/03 04:05:35;;;;;;;38.15;20.35;;;;;;;0.66;89.86;102176.38;4953996;29;20102;-81
2022/12/03 04:08:01;;;;;;;39.00;20.48;;;;;;;0.62;89.72;102171.94;4954046;29;20039;-81
2022/12/03 04:13:09;;;;;;;35.80;18.75;;;;;;;0.70;90.44;102168.03;4953726;29;20033;-81
2022/12/03 04:15:35;;;;;;;36.42;18.33;;;;;;;0.71;89.94;102168.94;4954043;28;20122;-81
2022/12/03 04:20:44;;;;;;;38.47;19.75;;;;;;;0.70;90.00;102165.50;4954157;29;20042;-81
2022/12/03 04:23:09;;;;;;;37.30;19.63;;;;;;;0.68;90.09;102166.22;4954278;29;20452;-81
2022/12/03 04:35:41;;;;;;;36.05;18.15;;;;;;;0.74;90.12;102169.06;4954812;29;20400;-81
2022/12/03 04:36:31;;;;;;;36.50;19.92;;;;;;;0.70;89.92;102167.19;4954664;29;20049;-82
2022/12/03 04:38:57;;;;;;;37.28;19.27;;;;;;;0.67;89.86;102167.03;4954177;29;20031;-80
2022/12/03 04:41:22;;;;;;;36.75;18.88;;;;;;;0.66;90.21;102171.28;4953197;29;20400;-81
2022/12/03 04:46:31;;;;;;;35.72;18.80;;;;;;;0.68;89.95;102164.53;4954555;29;20186;-81
2022/12/03 04:48:56;;;;;;;36.60;19.30;;;;;;;0.63;89.44;102160.91;4953223;29;20117;-81
2022/12/03 04:51:21;;;;;;;38.13;19.73;;;;;;;0.61;89.66;102158.28;4954192;29;20028;-81
2022/12/03 04:53:47;;;;;;;37.15;19.67;;;;;;;0.63;90.23;102160.91;4954133;29;20429;-81
2022/12/03 04:56:12;;;;;;;37.63;20.25;;;;;;;0.62;90.33;102151.50;4953064;29;20042;-80
2022/12/03 04:58:37;;;;;;;37.67;20.02;;;;;;;0.69;89.67;102158.63;4954056;29;20042;-81
2022/12/03 05:01:02;;;;;;;37.08;18.63;;;;;;;0.70;90.68;102162.06;4953723;29;20046;-81
2022/12/03 05:03:28;;;;;;;36.25;17.83;;;;;;;0.72;90.36;102160.47;4952822;29;20047;-81
2022/12/03 05:05:53;;;;;;;35.58;18.40;;;;;;;0.71;90.37;102153.59;4953510;29;20030;-81
2022/12/03 05:08:18;;;;;;;39.63;21.27;;;;;;;0.64;90.08;102151.53;4953254;28;20464;-80
2022/12/03 05:10:43;;;;;;;36.10;19.38;;;;;;;0.64;90.64;102152.44;4957625;29;20023;-81
2022/12/03 05:13:09;;;;;;;37.40;19.50;;;;;;;0.66;90.27;102150.84;4956896;29;20035;-81
2022/12/03 05:15:34;;;;;;;37.38;19.77;;;;;;;0.65;90.45;102151.63;4956233;28;20046;-81
2022/12/03 05:17:59;;;;;;;36.97;19.77;;;;;;;0.66;90.95;102155.94;4957531;29;20020;-81
2022/12/03 05:20:40;;;;;;;40.65;20.83;;;;;;;0.60;90.81;102148.88;4957212;29;20487;-81
2022/12/03 05:23:05;;;;;;;38.20;20.52;;;;;;;0.64;91.26;102149.88;4956510;29;20035;-81
2022/12/03 05:25:30;;;;;;;39.58;20.58;;;;;;;0.64;91.23;102152.44;4957143;29;20403;-81
2022/12/03 05:27:55;;;;;;;39.85;20.35;;;;;;;0.64;90.96;102143.88;4956993;29;20045;-81
2022/12/03 05:30:21;;;;;;;37.05;19.40;;;;;;;0.67;91.41;102150.03;4955749;29;20031;-81
2022/12/03 05:32:46;;;;;;;38.95;19.90;;;;;;;0.67;91.07;102144.94;4956762;29;20110;-80
2022/12/03 05:35:12;;;;;;;39.67;20.95;;;;;;;0.61;91.27;102142.97;4956242;29;20106;-81
2022/12/03 05:37:37;;;;;;;41.50;21.02;;;;;;;0.59;91.26;102143.66;4956256;29;20483;-80
2022/12/03 05:40:03;;;;;;;39.08;21.15;;;;;;;0.53;91.30;102139.16;4956968;29;20027;-81
2022/12/03 05:45:15;;;;;;;42.28;21.40;;;;;;;0.53;91.71;102138.28;4956164;29;20034;-82
2022/12/03 05:47:40;;;;;;;43.40;22.20;;;;;;;0.54;92.21;102140.03;4956965;29;20114;-81
2022/12/03 05:50:06;;;;;;;42.90;21.95;;;;;;;0.52;92.40;102128.88;4956501;29;20051;-81
2022/12/03 05:52:31;;;;;;;42.75;21.30;;;;;;;0.53;92.26;102128.06;4956037;29;20038;-81
2022/12/03 05:55:00;;;;;;;41.47;21.77;;;;;;;0.54;92.74;102135.78;4956644;29;20118;-81
2022/12/03 05:57:25;;;;;;;42.03;20.95;;;;;;;0.54;92.58;102133.25;5009071;23;20407;-80
2022/12/03 05:59:50;;;;;;;42.92;21.63;;;;;;;0.54;92.42;102129.81;4956417;29;20122;-81
2022/12/03 06:02:16;;;;;;;42.90;21.63;;;;;;;0.56;92.62;102123.97;4955837;29;20039;-81
2022/12/03 06:04:41;;;;;;;41.92;20.73;;;;;;;0.53;92.31;102133.19;4955216;29;20531;-81
2022/12/03 06:07:06;;;;;;;41.60;20.83;;;;;;;0.51;92.38;102124.56;4956292;29;20037;-80
2022/12/03 06:09:31;;;;;;;41.40;20.45;;;;;;;0.54;92.30;102129.81;4956323;29;20031;-80
2022/12/03 06:11:57;;;;;;;42.00;21.58;;;;;;;0.55;92.10;102129.88;4955881;29;20117;-81
2022/12/03 06:14:23;;;;;;;39.55;20.58;;;;;;;0.54;92.28;102127.28;4956361;29;20038;-81
2022/12/03 06:16:48;;;;;;;41.42;20.75;;;;;;;0.53;92.05;102126.38;4956701;29;20078;-81
2022/12/03 06:19:13;;;;;;;40.67;20.70;;;;;;;0.49;92.59;102119.41;4955351;29;20429;-81
2022/12/03 06:21:38;;;;;;;39.33;20.95;;;;;;;0.50;91.98;102126.25;4955303;29;20090;-81
2022/12/03 06:24:04;;;;;;;41.90;20.95;;;;;;;0.53;92.23;102131.47;4955963;29;20436;-81
2022/12/03 06:26:29;;;;;;;41.17;21.10;;;;;;;0.51;92.22;102119.44;4955637;29;20094;-81
2022/12/03 06:28:54;;;;;;;40.33;21.13;;;;;;;0.51;92.26;102122.00;4955956;29;20072;-81
2022/12/03 06:31:20;;;;;;;41.95;20.77;;;;;;;0.53;92.74;102122.97;4955584;29;20031;-80
2022/12/03 06:33:45;;;;;;;42.60;21.58;;;;;;;0.50;92.29;102131.38;4955260;29;20468;-81
2022/12/03 06:36:10;;;;;;;44.15;21.77;;;;;;;0.49;92.57;102123.59;4955830;29;20047;-81
2022/12/03 06:38:36;;;;;;;41.72;21.05;;;;;;;0.50;92.65;102126.25;4956176;29;20106;-81
2022/12/03 06:41:01;;;;;;;43.20;22.13;;;;;;;0.51;92.86;102127.13;4954886;29;20391;-81
2022/12/03 06:43:26;;;;;;;43.20;22.05;;;;;;;0.49;92.42;102128.72;4955731;29;20019;-81
2022/12/03 06:45:51;;;;;;;42.47;21.35;;;;;;;0.48;92.69;102124.41;4955500;29;20392;-82
2022/12/03 06:48:17;;;;;;;45.15;22.48;;;;;;;0.46;92.68;102126.91;4955036;29;20031;-82
2022/12/03 06:50:42;;;;;;;44.10;22.52;;;;;;;0.47;92.99;102126.09;4955607;29;20027;-82
2022/12/03 06:53:07;;;;;;;41.92;20.58;;;;;;;0.45;92.84;102120.91;4955314;29;20114;-83
2022/12/03 06:55:35;;;;;;;40.75;20.42;;;;;;;0.46;92.71;102121.78;4954962;29;20034;-83
2022/12/03 06:58:01;;;;;;;41.50;21.60;;;;;;;0.50;92.44;102127.91;4955429;28;20146;-83
2022/12/03 07:00:41;;;;;;;39.22;20.02;;;;;;;0.49;92.25;102119.41;4915397;29;20447;-82
2022/12/03 07:03:06;;;;;;;40.90;20.38;;;;;;;0.51;92.35;102119.44;4955473;29;20039;-83
2022/12/03 07:05:31;;;;;;;40.55;21.40;;;;;;;0.50;92.44;102115.16;4955598;29;20028;-82
2022/12/03 07:07:57;;;;;;;42.13;21.05;;;;;;;0.45;92.26;102115.78;4954848;29;20361;-84
2022/12/03 07:10:22;;;;;;;40.47;20.30;;;;;;;0.48;92.29;102116.75;4955403;29;20027;-83
2022/12/03 07:12:47;;;;;;;40.60;20.50;;;;;;;0.49;92.81;102118.50;4955370;29;20027;-83
2022/12/03 07:15:13;;;;;;;43.72;21.60;;;;;;;0.48;92.41;102114.19;4954120;29;20391;-82
2022/12/03 07:17:38;;;;;;;39.22;19.00;;;;;;;0.49;92.43;102116.84;4955331;29;20031;-83
2022/12/03 07:20:05;;;;;;;41.28;20.30;;;;;;;0.51;92.15;102124.56;4954838;29;20031;-82
2022/12/03 07:22:30;;;;;;;42.28;21.60;;;;;;;0.48;91.87;102121.84;4954486;29;20062;-83
2022/12/03 07:24:55;;;;;;;42.35;20.25;;;;;;;0.48;91.59;102114.19;4955087;29;20031;-82
2022/12/03 07:27:20;;;;;;;40.15;20.33;;;;;;;0.53;92.16;102117.84;4954460;29;20110;-83
2022/12/03 07:29:46;;;;;;;38.17;19.23;;;;;;;0.52;91.56;102113.53;4953907;29;20379;-85
2022/12/03 07:32:14;;;;;;;38.55;19.45;;;;;;;0.53;91.40;102120.41;4954603;28;20495;-82
2022/12/03 07:34:52;;;;;;;37.20;18.33;;;;;;;0.53;91.65;102117.84;4955137;29;20388;-83
2022/12/03 07:37:35;;;;;;;38.40;19.25;;;;;;;0.50;91.49;102116.03;4954165;29;20507;-86
2022/12/03 07:40:01;;;;;;;38.17;19.30;;;;;;;0.57;91.38;102119.72;4954912;29;20034;-84
2022/12/03 07:42:26;;;;;;;38.60;19.23;;;;;;;0.56;91.63;102121.41;4954286;29;20031;-83
2022/12/03 07:44:52;;;;;;;37.80;19.23;;;;;;;0.56;91.39;102115.44;4954484;29;20472;-83
2022/12/03 07:47:17;;;;;;;40.78;20.05;;;;;;;0.52;91.06;102118.66;4954315;29;20035;-83
2022/12/03 07:49:42;;;;;;;37.13;18.55;;;;;;;0.54;91.46;102124.72;4955032;29;20050;-83
2022/12/03 07:52:23;;;;;;;36.45;17.92;;;;;;;0.58;91.82;102116.38;4953506;29;20105;-83
2022/12/03 07:54:51;;;;;;;37.17;18.45;;;;;;;0.55;90.63;102114.56;4954602;29;20123;-83
2022/12/03 07:57:16;;;;;;;39.20;18.55;;;;;;;0.61;90.37;102129.28;4953358;28;20035;-84
2022/12/03 07:59:41;;;;;;;37.72;19.00;;;;;;;0.53;90.25;102120.41;4953947;29;20480;-83
2022/12/03 08:02:08;;;;;;;39.25;18.13;;;;;;;0.53;90.47;102122.97;4954408;29;20039;-83
2022/12/03 08:04:51;;;;;;;40.03;18.85;;;;;;;0.54;90.33;102128.13;4954048;29;20019;-83
2022/12/03 08:07:19;;;;;;;36.60;18.00;;;;;;;0.53;90.24;102122.97;4954484;29;20031;-83
2022/12/03 08:09:45;;;;;;;37.92;18.48;;;;;;;0.54;90.40;102127.28;4955071;29;20115;-83
2022/12/03 08:12:16;;;;;;;38.92;18.85;;;;;;;0.52;90.61;102123.75;4953389;29;20523;-83
2022/12/03 08:14:42;;;;;;;37.85;19.00;;;;;;;0.57;90.25;102133.38;4954761;29;20034;-82
2022/12/03 08:17:14;;;;;;;38.67;19.48;;;;;;;0.54;90.50;102128.13;4954209;29;20027;-84
2022/12/03 08:19:45;;;;;;;36.50;18.52;;;;;;;0.56;90.78;102135.88;4953690;29;20058;-83
2022/12/03 08:22:13;;;;;;;35.10;17.00;;;;;;;0.59;91.01;102131.78;4954478;29;20028;-82
2022/12/03 08:24:38;;;;;;;34.67;16.70;;;;;;;0.61;90.77;102129.28;4954784;29;20027;-82
2022/12/03 08:27:13;;;;;;;36.20;17.48;;;;;;;0.60;90.69;102132.66;4952960;29;20547;-82
2022/12/03 08:29:39;;;;;;;37.25;18.80;;;;;;;0.59;90.90;102142.00;4954304;29;20035;-82
2022/12/03 08:32:05;;;;;;;37.78;17.88;;;;;;;0.56;91.07;102134.19;4953861;29;20034;-81
2022/12/03 08:34:40;;;;;;;38.10;18.92;;;;;;;0.57;91.13;102137.59;4954374;29;20106;-82
2022/12/03 08:37:17;;;;;;;39.22;19.40;;;;;;;0.57;91.09;102133.38;4954278;29;20479;-82
2022/12/03 08:39:44;;;;;;;;;;;;;;;0.57;91.09;102133.38;4954165;29;20441;-82
2022/12/03 08:42:42;;;;;;;38.35;18.52;;;;;;;0.53;91.11;102133.19;4942414;29;19914;-81
2022/12/03 08:45:31;;;;;;;40.10;20.10;;;;;;;0.60;91.24;102130.09;4957324;29;20391;-83
2022/12/03 08:48:00;;;;;;;39.20;19.08;;;;;;;0.60;90.98;102125.88;4957217;29;20069;-83
2022/12/03 08:50:44;;;;;;;40.35;18.58;;;;;;;0.59;91.03;102126.69;4957521;29;20023;-83
2022/12/03 08:53:12;;;;;;;36.58;18.08;;;;;;;0.64;91.27;102134.56;4957782;29;20027;-82
2022/12/03 08:55:44;;;;;;;37.78;18.13;;;;;;;0.58;91.07;102121.47;4940208;29;20031;-81
2022/12/03 08:58:31;;;;;;;38.47;18.15;;;;;;;0.61;90.70;102125.06;4957438;28;20059;-83
2022/12/03 09:01:04;;;;;;;37.40;17.52;;;;;;;0.59;90.80;102126.69;4956775;29;20039;-82
2022/12/03 09:03:31;;;;;;;38.38;18.27;;;;;;;0.57;90.82;102132.50;4957149;29;20416;-83
2022/12/03 09:05:56;;;;;;;38.08;18.98;;;;;;;0.59;91.08;102133.44;4957716;29;20027;-81
2022/12/03 09:08:24;;;;;;;37.85;17.90;;;;;;;0.61;90.75;102135.28;4956639;29;20027;-82
2022/12/03 09:10:49;;;;;;;35.88;17.23;;;;;;;0.63;90.75;102126.81;4957838;29;20110;-83
2022/12/03 09:13:15;;;;;;;39.65;18.73;;;;;;;0.63;90.68;102125.13;4957715;29;20047;-82
2022/12/03 09:15:40;;;;;;;40.88;17.48;;;;;;;0.62;90.81;102123.38;4956319;29;20027;-81
2022/12/03 09:18:05;;;;;;;38.05;18.55;;;;;;;0.67;91.11;102127.03;4957149;29;20031;-81
2022/12/03 09:20:31;;;;;;;38.55;17.95;;;;;;;0.71;90.70;102128.06;4957355;29;20058;-81
2022/12/03 09:22:56;;;;;;;37.83;17.60;;;;;;;0.72;90.61;102135.78;4956339;29;20038;-81
2022/12/03 09:25:21;;;;;;;38.10;17.75;;;;;;;0.74;90.46;102134.16;4956429;29;20027;-81
2022/12/03 09:27:47;;;;;;;36.42;16.63;;;;;;;0.75;90.33;102132.47;4957121;29;20370;-81
2022/12/03 09:30:12;;;;;;;39.13;18.30;;;;;;;0.75;89.98;102130.81;4956188;29;20042;-81
2022/12/03 09:32:37;;;;;;;40.15;18.40;;;;;;;0.75;89.63;102135.03;4957338;29;20027;-81
2022/12/03 09:35:03;;;;;;;39.38;18.73;;;;;;;0.89;89.16;102120.34;4957062;29;20102;-82
2022/12/03 09:37:29;;;;;;;40.90;18.77;;;;;;;0.77;88.31;102129.22;4956519;29;20035;-82
2022/12/03 09:39:54;;;;;;;40.50;19.77;;;;;;;0.66;88.32;102130.41;4957114;29;20410;-83
2022/12/03 09:42:19;;;;;;;41.55;18.90;;;;;;;0.66;88.88;102122.72;4956496;29;20031;-82
2022/12/03 09:44:45;;;;;;;43.58;19.67;;;;;;;0.65;88.89;102120.09;4956213;29;20030;-82
2022/12/03 09:47:11;;;;;;;39.13;18.83;;;;;;;0.66;89.30;102125.28;4956917;29;20028;-84
2022/12/03 09:49:37;;;;;;;39.83;19.52;;;;;;;0.59;88.51;102128.34;4956262;29;20486;-82
2022/12/03 09:52:04;;;;;;;39.95;19.17;;;;;;;0.57;88.39;102119.72;4956380;29;20034;-82
2022/12/03 09:54:31;;;;;;;39.17;17.80;;;;;;;0.60;88.62;102119.88;4956617;28;20038;-81
2022/12/03 09:56:59;;;;;;;40.00;17.70;;;;;;;0.54;88.03;102110.25;4956008;28;20168;-81
2022/12/03 09:59:34;;;;;;;38.00;16.70;;;;;;;0.57;88.74;102120.63;4956486;29;20029;-82
2022/12/03 10:02:00;;;;;;;37.58;17.60;;;;;;;0.59;88.24;102110.47;4956675;29;20026;-81
2022/12/03 10:04:27;;;;;;;39.95;18.55;;;;;;;0.50;87.43;102107.47;4955479;29;20480;-79
2022/12/03 10:06:52;;;;;;;;;;;;;;;0.54;87.73;102105.13;4957602;29;20361;-79
2022/12/03 10:09:23;;;;;;;36.07;16.20;;;;;;;0.58;87.73;102108.69;4956288;29;19918;-80
2022/12/03 10:11:49;;;;;;;31.40;14.50;;;;;;;0.62;87.98;102100.38;4955709;29;20038;-80
2022/12/03 10:14:16;;;;;;;31.52;14.10;;;;;;;0.63;87.91;102104.69;4956322;29;20151;-80
2022/12/03 10:16:42;;;;;;;35.58;16.00;;;;;;;0.63;87.66;102091.91;4956457;29;20023;-79
2022/12/03 10:19:17;;;;;;;35.38;15.80;;;;;;;0.58;87.50;102090.81;4955261;29;20054;-79
2022/12/03 10:21:42;;;;;;;36.35;17.02;;;;;;;0.54;88.13;102089.81;4956391;29;20031;-80
2022/12/03 10:24:19;;;;;;;36.30;17.02;;;;;;;0.56;88.28;102092.44;4956116;29;20035;-80
2022/12/03 10:26:46;;;;;;;35.35;15.65;;;;;;;0.58;88.09;102086.59;4955879;29;20039;-80
2022/12/03 10:29:51;;;;;;;37.67;17.00;;;;;;;0.53;87.86;102085.50;4956123;29;20030;-80
2022/12/03 10:32:17;;;;;;;37.42;16.95;;;;;;;0.50;88.19;102077.72;4943733;29;20035;-80
2022/12/03 10:34:43;;;;;;;33.50;15.98;;;;;;;0.53;88.46;102077.84;4956093;29;20428;-80
2022/12/03 10:37:20;;;;;;;31.83;14.50;;;;;;;0.60;88.46;102073.88;4956024;29;20483;-80
2022/12/03 10:40:07;;;;;;;;;;;;;;;0.67;88.27;102075.94;4955867;29;20027;-81
2022/12/03 10:42:34;;;;;;;31.85;13.95;;;;;;;0.68;87.27;102064.03;4951853;29;19918;-80
2022/12/03 10:45:05;;;;;;;33.67;14.32;;;;;;;0.70;86.65;102067.53;4955615;29;20085;-80
2022/12/03 10:47:30;;;;;;;31.02;13.48;;;;;;;0.66;86.53;102069.06;4955130;29;20110;-81
2022/12/03 10:50:02;;;;;;;32.47;13.38;;;;;;;0.70;87.47;102064.97;4955705;29;20520;-81
2022/12/03 10:52:28;;;;;;;31.73;14.20;;;;;;;0.69;87.01;102053.00;4956597;29;20389;-81
2022/12/03 10:54:53;;;;;;;34.40;15.23;;;;;;;0.70;85.09;102050.50;4955561;29;20031;-83
2022/12/03 10:57:19;;;;;;;34.05;15.98;;;;;;;0.59;83.58;102051.69;4955311;28;20572;-82
2022/12/03 10:59:44;;;;;;;31.48;14.40;;;;;;;0.56;83.43;102046.47;4955557;29;20027;-80
2022/12/03 11:02:18;;;;;;;29.25;13.52;;;;;;;0.65;84.91;102043.44;4954479;29;20416;-81
2022/12/03 11:04:44;;;;;;;32.50;15.40;;;;;;;0.64;83.83;102039.13;5021456;23;20100;-81
2022/12/03 11:07:15;;;;;;;34.70;16.05;;;;;;;0.56;84.22;102036.25;4992480;28;20152;-83
2022/12/03 11:09:44;;;;;;;32.92;14.98;;;;;;;0.64;84.53;102034.00;4994268;28;20038;-83
2022/12/03 11:12:18;;;;;;;31.42;14.30;;;;;;;0.73;84.71;102044.66;4993676;28;20479;-83
2022/12/03 11:14:50;;;;;;;32.22;14.65;;;;;;;0.60;83.58;102044.13;4993661;28;20041;-83
2022/12/03 11:17:24;;;;;;;32.90;14.98;;;;;;;0.64;83.90;102034.00;4993777;28;20467;-83
2022/12/03 11:19:50;;;;;;;29.83;14.50;;;;;;;0.66;83.80;102033.31;4993756;28;20022;-83
2022/12/03 11:22:24;;;;;;;32.03;14.88;;;;;;;0.57;82.63;102037.97;4993052;28;20137;-83
2022/12/03 11:25:25;;;;;;;29.42;13.75;;;;;;;0.59;83.69;102026.16;4993888;28;20475;-83
2022/12/03 11:28:09;;;;;;;28.92;13.35;;;;;;;0.64;83.52;102026.34;4993345;28;20038;-83
2022/12/03 11:30:49;;;;;;;30.60;14.60;;;;;;;0.64;83.74;102024.69;4993851;28;20041;-83
2022/12/03 11:33:26;;;;;;;31.67;14.10;;;;;;;0.62;83.56;102013.53;4993608;28;20472;-83
2022/12/03 11:36:03;;;;;;;;;;;;;;;0.57;82.88;102012.41;4993428;28;20033;-83
2022/12/03 11:38:41;;;;;;;28.42;13.23;;;;;;;0.62;84.27;102016.06;4993956;28;19921;-83
2022/12/03 11:41:11;;;;;;;28.95;13.60;;;;;;;0.57;83.51;102015.88;4986849;28;20059;-83